createdAt,value
2023-03-15T00:02:15.664Z,23.17
2023-03-15T00:04:42.773Z,23.22
2023-03-15T00:07:10.017Z,23.24
2023-03-15T00:09:38.554Z,23.24
2023-03-15T00:12:06.225Z,23.23
2023-03-15T00:14:33.330Z,23.25
2023-03-15T00:17:00.409Z,23.22
2023-03-15T00:19:27.499Z,23.21
2023-03-15T00:21:54.648Z,23.21
2023-03-15T00:24:23.395Z,23.22
2023-03-15T00:26:53.535Z,23.09
2023-03-15T00:29:20.653Z,23.17
2023-03-15T00:31:47.744Z,23.14
2023-03-15T00:34:14.848Z,23.15
2023-03-15T00:36:41.940Z,23.11
2023-03-15T00:39:09.592Z,23.05
2023-03-15T00:41:37.281Z,23.01
2023-03-15T00:44:05.798Z,23.04
2023-03-15T00:46:32.928Z,23.04
2023-03-15T00:49:00.024Z,23.04
2023-03-15T00:51:27.200Z,23.05
2023-03-15T00:53:54.292Z,23.11
2023-03-15T00:56:23.245Z,23.15
2023-03-15T00:58:51.091Z,23.16
2023-03-15T01:01:22.421Z,23.18
2023-03-15T01:03:50.338Z,23.18
2023-03-15T01:06:19.577Z,23.16
2023-03-15T01:08:47.022Z,23.12
2023-03-15T01:11:17.116Z,23.10
2023-03-15T01:13:44.574Z,23.08
2023-03-15T01:16:14.074Z,23.14
2023-03-15T01:18:43.177Z,23.10
2023-03-15T01:21:12.627Z,23.06
2023-03-15T01:23:40.665Z,23.08
2023-03-15T01:26:12.003Z,23.05
2023-03-15T01:28:39.837Z,23.02
2023-03-15T01:31:07.226Z,23.00
2023-03-15T01:33:34.323Z,23.00
2023-03-15T01:36:05.381Z,22.99
2023-03-15T01:38:33.361Z,23.00
2023-03-15T01:41:00.871Z,22.96
2023-03-15T01:43:28.995Z,23.02
2023-03-15T01:46:06.515Z,23.03
2023-03-15T01:48:37.316Z,23.09
2023-03-15T01:51:11.519Z,23.08
2023-03-15T01:53:39.504Z,23.09
2023-03-15T01:56:07.131Z,23.08
2023-03-15T01:58:36.809Z,23.08
2023-03-15T02:01:04.098Z,23.04
2023-03-15T02:03:34.768Z,23.03
2023-03-15T02:06:04.216Z,23.03
2023-03-15T02:08:37.048Z,23.02
2023-03-15T02:11:04.619Z,23.02
2023-03-15T02:13:33.280Z,23.03
2023-03-15T02:16:00.405Z,23.04
2023-03-15T02:18:27.384Z,22.97
2023-03-15T02:20:59.360Z,22.93
2023-03-15T02:23:26.882Z,22.74
2023-03-15T02:26:00.153Z,22.90
2023-03-15T02:28:28.897Z,22.91
2023-03-15T02:30:56.899Z,22.91
2023-03-15T02:33:25.325Z,22.92
2023-03-15T02:35:52.531Z,22.98
2023-03-15T02:38:19.729Z,23.04
2023-03-15T02:40:46.548Z,23.02
2023-03-15T02:43:15.937Z,23.04
2023-03-15T02:45:44.690Z,23.04
2023-03-15T02:48:11.783Z,23.03
2023-03-15T02:50:38.828Z,22.99
2023-03-15T02:53:05.714Z,22.97
2023-03-15T02:55:32.510Z,22.99
2023-03-15T02:57:59.643Z,22.98
2023-03-15T03:00:26.491Z,22.96
2023-03-15T03:02:54.931Z,22.94
2023-03-15T03:05:21.857Z,22.94
2023-03-15T03:07:48.670Z,22.94
2023-03-15T03:10:16.591Z,22.88
2023-03-15T03:12:43.470Z,22.89
2023-03-15T03:15:10.957Z,22.88
2023-03-15T03:17:37.765Z,22.86
2023-03-15T03:20:06.542Z,22.89
2023-03-15T03:22:33.434Z,22.87
2023-03-15T03:25:00.331Z,22.87
2023-03-15T03:27:27.169Z,22.92
2023-03-15T03:29:53.966Z,22.97
2023-03-15T03:32:20.846Z,22.95
2023-03-15T03:34:47.973Z,22.98
2023-03-15T03:37:16.436Z,22.96
2023-03-15T03:39:43.237Z,22.95
2023-03-15T03:42:10.220Z,22.89
2023-03-15T03:44:37.216Z,22.96
2023-03-15T03:47:04.227Z,23.10
2023-03-15T03:49:31.054Z,23.25
2023-03-15T03:51:57.877Z,23.32
2023-03-15T03:54:26.072Z,23.38
2023-03-15T03:56:53.176Z,23.51
2023-03-15T03:59:20.038Z,23.66
2023-03-15T04:01:46.858Z,23.65
2023-03-15T04:04:13.801Z,23.69
2023-03-15T04:06:40.700Z,23.75
2023-03-15T04:09:07.512Z,23.76
2023-03-15T04:11:35.772Z,23.76
2023-03-15T04:14:02.556Z,23.69
2023-03-15T04:16:29.424Z,23.67
2023-03-15T04:18:56.302Z,23.72
2023-03-15T04:21:23.244Z,23.74
2023-03-15T04:23:50.059Z,23.72
2023-03-15T04:26:16.900Z,23.70
2023-03-15T04:28:45.058Z,23.71
2023-03-15T04:31:11.921Z,23.64
2023-03-15T04:33:38.775Z,23.57
2023-03-15T04:36:05.930Z,23.51
2023-03-15T04:38:32.751Z,23.56
2023-03-15T04:40:59.602Z,23.43
2023-03-15T04:43:26.402Z,23.45
2023-03-15T04:45:54.582Z,23.44
2023-03-15T04:48:21.430Z,23.40
2023-03-15T04:50:48.226Z,23.33
2023-03-15T04:53:15.096Z,23.22
2023-03-15T04:55:41.937Z,23.21
2023-03-15T04:58:08.748Z,23.24
2023-03-15T05:00:35.569Z,23.23
2023-03-15T05:03:03.874Z,23.27
2023-03-15T05:05:32.423Z,23.33
2023-03-15T05:07:59.237Z,23.39
2023-03-15T05:10:26.098Z,23.47
2023-03-15T05:12:52.902Z,23.23
2023-03-15T05:15:19.755Z,23.13
2023-03-15T05:17:46.831Z,23.30
2023-03-15T05:20:15.561Z,23.32
2023-03-15T05:22:42.912Z,23.18
2023-03-15T05:25:10.656Z,23.39
2023-03-15T05:27:37.734Z,23.45
2023-03-15T05:30:05.246Z,23.52
2023-03-15T05:32:32.293Z,23.82
2023-03-15T05:34:59.117Z,23.96
2023-03-15T05:37:27.721Z,24.14
2023-03-15T05:39:54.562Z,24.48
2023-03-15T05:42:21.368Z,24.69
2023-03-15T05:44:48.176Z,24.55
2023-03-15T05:47:15.031Z,24.32
2023-03-15T05:49:41.851Z,24.38
2023-03-15T05:52:08.807Z,24.35
2023-03-15T05:54:36.972Z,24.37
2023-03-15T05:57:03.970Z,24.37
2023-03-15T05:59:30.774Z,24.33
2023-03-15T06:01:57.705Z,24.24
2023-03-15T06:04:24.977Z,24.29
2023-03-15T06:06:51.911Z,24.01
2023-03-15T06:09:18.769Z,23.63
2023-03-15T06:11:46.917Z,23.41
2023-03-15T06:14:13.729Z,23.33
2023-03-15T06:16:40.647Z,23.45
2023-03-15T06:19:07.475Z,23.46
2023-03-15T06:21:34.279Z,23.46
2023-03-15T06:24:01.238Z,23.48
2023-03-15T06:26:28.035Z,23.46
2023-03-15T06:28:56.189Z,23.42
2023-03-15T06:31:23.092Z,23.37
2023-03-15T06:33:49.891Z,23.36
2023-03-15T06:36:16.710Z,23.37
2023-03-15T06:38:43.570Z,23.35
2023-03-15T06:41:10.450Z,23.31
2023-03-15T06:43:37.245Z,23.30
2023-03-15T06:46:05.613Z,23.37
2023-03-15T06:48:32.513Z,23.35
2023-03-15T06:50:59.320Z,23.39
2023-03-15T06:53:26.146Z,23.37
2023-03-15T06:55:52.994Z,23.36
2023-03-15T06:58:19.808Z,23.36
2023-03-15T07:00:46.849Z,23.32
2023-03-15T07:03:15.065Z,23.34
2023-03-15T07:05:41.968Z,23.34
2023-03-15T07:08:08.817Z,23.35
2023-03-15T07:10:35.618Z,23.33
2023-03-15T07:13:02.556Z,23.10
2023-03-15T07:15:29.386Z,23.36
2023-03-15T07:17:56.193Z,23.31
2023-03-15T07:20:24.348Z,23.29
2023-03-15T07:22:51.160Z,23.33
2023-03-15T07:25:17.974Z,23.30
2023-03-15T07:27:44.770Z,23.28
2023-03-15T07:30:12.284Z,23.24
2023-03-15T07:32:39.283Z,23.28
2023-03-15T07:35:06.471Z,23.35
2023-03-15T07:37:34.725Z,23.44
2023-03-15T07:40:01.515Z,23.53
2023-03-15T07:42:28.307Z,23.58
2023-03-15T07:44:55.221Z,23.58
2023-03-15T07:47:22.006Z,23.72
2023-03-15T07:49:48.850Z,23.78
2023-03-15T07:52:15.974Z,23.56
2023-03-15T07:54:44.180Z,23.76
2023-03-15T07:57:10.987Z,23.85
2023-03-15T07:59:37.807Z,23.91
2023-03-15T08:02:04.912Z,23.86
2023-03-15T08:04:31.804Z,23.89
2023-03-15T08:06:58.623Z,23.90
2023-03-15T08:09:25.449Z,23.87
2023-03-15T08:11:53.658Z,23.78
2023-03-15T08:14:20.488Z,23.69
2023-03-15T08:16:47.414Z,24.17
2023-03-15T08:19:14.220Z,24.33
2023-03-15T08:21:41.077Z,24.26
2023-03-15T08:24:07.906Z,24.19
2023-03-15T08:26:34.689Z,24.25
2023-03-15T08:29:02.905Z,24.08
2023-03-15T08:31:29.820Z,24.06
2023-03-15T08:33:56.963Z,23.93
2023-03-15T08:36:24.034Z,23.86
2023-03-15T08:38:50.889Z,23.87
2023-03-15T08:41:17.687Z,23.79
2023-03-15T08:43:44.505Z,23.76
2023-03-15T08:46:12.746Z,23.71
2023-03-15T08:48:39.686Z,23.70
2023-03-15T08:51:06.948Z,23.72
2023-03-15T08:53:33.769Z,23.70
2023-03-15T08:56:00.752Z,23.68
2023-03-15T08:58:27.602Z,23.47
2023-03-15T09:00:54.402Z,23.67
2023-03-15T09:03:22.873Z,23.67
2023-03-15T09:05:49.717Z,23.68
2023-03-15T09:08:16.521Z,23.66
2023-03-15T09:10:43.392Z,23.67
2023-03-15T09:13:10.255Z,23.70
2023-03-15T09:15:37.085Z,23.67
2023-03-15T09:18:04.027Z,23.66
2023-03-15T09:20:32.281Z,23.69
2023-03-15T09:22:59.092Z,23.65
2023-03-15T09:25:26.069Z,23.66
2023-03-15T09:27:52.912Z,23.75
2023-03-15T09:30:19.879Z,23.77
2023-03-15T09:32:47.065Z,23.78
2023-03-15T09:35:15.308Z,23.78
2023-03-15T09:37:43.850Z,23.82
2023-03-15T09:40:15.789Z,23.80
2023-03-15T09:42:50.027Z,23.73
2023-03-15T09:45:22.465Z,23.79
2023-03-15T09:47:54.859Z,23.70
2023-03-15T09:50:24.612Z,23.66
2023-03-15T09:52:55.838Z,23.72
2023-03-15T09:55:23.158Z,23.70
2023-03-15T09:57:52.083Z,23.72
2023-03-15T10:00:20.774Z,23.69
2023-03-15T10:02:53.096Z,23.74
2023-03-15T10:05:20.882Z,23.70
2023-03-15T10:07:47.699Z,23.73
2023-03-15T10:10:18.062Z,23.73
2023-03-15T10:12:46.518Z,23.71
2023-03-15T10:15:25.593Z,23.77
2023-03-15T10:18:01.713Z,23.73
2023-03-15T10:20:31.533Z,23.73
2023-03-15T10:23:00.108Z,23.72
2023-03-15T10:25:29.007Z,23.67
2023-03-15T10:27:57.360Z,23.61
2023-03-15T10:30:25.137Z,23.61
2023-03-15T10:32:54.805Z,23.47
2023-03-15T10:35:21.664Z,23.63
2023-03-15T10:37:48.500Z,23.61
2023-03-15T10:40:15.502Z,23.67
2023-03-15T10:42:44.599Z,23.66
2023-03-15T10:45:13.038Z,23.64
2023-03-15T10:47:45.253Z,23.70
2023-03-15T10:50:17.943Z,23.66
2023-03-15T10:52:45.434Z,23.71
2023-03-15T10:55:13.907Z,23.75
2023-03-15T10:57:41.790Z,23.75
2023-03-15T11:00:20.221Z,23.74
2023-03-15T11:03:00.339Z,23.71
2023-03-15T11:05:30.080Z,23.73
2023-03-15T11:07:58.284Z,23.70
2023-03-15T11:10:26.096Z,23.66
2023-03-15T11:13:07.780Z,23.64
2023-03-15T11:15:34.730Z,23.66
2023-03-15T11:18:03.035Z,23.65
2023-03-15T11:20:34.349Z,23.68
2023-03-15T11:23:06.035Z,23.67
2023-03-15T11:25:33.120Z,23.57
2023-03-15T11:28:00.185Z,23.55
2023-03-15T11:30:28.445Z,23.59
2023-03-15T11:32:55.550Z,23.58
2023-03-15T11:35:26.210Z,23.56
2023-03-15T11:38:03.203Z,23.57
2023-03-15T11:40:34.566Z,23.68
2023-03-15T11:43:03.199Z,23.69
2023-03-15T11:45:34.115Z,23.66
2023-03-15T11:48:04.064Z,23.68
2023-03-15T11:50:32.245Z,23.63
2023-03-15T11:52:59.790Z,23.62
2023-03-15T11:55:27.967Z,23.68
2023-03-15T11:57:55.422Z,23.69
2023-03-15T12:00:46.194Z,23.67
2023-03-15T12:03:31.592Z,23.64
2023-03-15T12:06:05.624Z,23.59
2023-03-15T12:08:43.312Z,23.59
2023-03-15T12:11:10.819Z,23.63
2023-03-15T12:13:37.646Z,23.56
2023-03-15T12:16:06.162Z,23.52
2023-03-15T12:18:38.621Z,23.53
2023-03-15T12:21:09.188Z,23.56
2023-03-15T12:23:38.391Z,23.48
2023-03-15T12:26:06.593Z,23.52
2023-03-15T12:28:35.373Z,23.54
2023-03-15T12:31:04.233Z,23.63
2023-03-15T12:33:32.051Z,23.71
2023-03-15T12:36:00.409Z,23.67
2023-03-15T12:38:32.224Z,23.68
2023-03-15T12:40:59.125Z,23.68
2023-03-15T12:43:35.792Z,23.65
2023-03-15T12:46:02.864Z,23.63
2023-03-15T12:48:30.410Z,23.64
2023-03-15T12:50:59.782Z,23.62
2023-03-15T12:53:36.441Z,23.55
2023-03-15T12:56:36.443Z,23.56
2023-03-15T12:59:10.024Z,23.56
2023-03-15T13:01:37.418Z,23.54
2023-03-15T13:04:04.328Z,23.55
2023-03-15T13:06:36.871Z,23.53
2023-03-15T13:09:10.451Z,23.59
2023-03-15T13:11:40.325Z,23.44
2023-03-15T13:14:26.612Z,23.57
2023-03-15T13:16:58.035Z,23.57
2023-03-15T13:19:26.414Z,23.69
2023-03-15T13:22:01.245Z,23.78
2023-03-15T13:24:33.296Z,23.79
2023-03-15T13:27:03.782Z,23.84
2023-03-15T13:29:31.613Z,23.82
2023-03-15T13:32:02.699Z,23.90
2023-03-15T13:34:31.245Z,23.94
2023-03-15T13:36:58.775Z,23.82
2023-03-15T13:39:26.509Z,23.76
2023-03-15T13:41:58.546Z,23.77
2023-03-15T13:44:25.893Z,23.72
2023-03-15T13:46:53.350Z,23.72
2023-03-15T13:49:20.918Z,23.71
2023-03-15T13:51:49.089Z,23.67
2023-03-15T13:54:17.649Z,23.62
2023-03-15T13:56:53.398Z,23.58
2023-03-15T13:59:22.224Z,23.55
2023-03-15T14:01:50.535Z,23.54
2023-03-15T14:04:18.428Z,23.58
2023-03-15T14:06:45.773Z,23.54
2023-03-15T14:09:17.471Z,23.57
2023-03-15T14:11:44.323Z,23.61
2023-03-15T14:14:20.133Z,23.59
2023-03-15T14:17:03.742Z,23.64
2023-03-15T14:19:32.912Z,23.57
2023-03-15T14:22:00.562Z,23.59
2023-03-15T14:24:30.120Z,23.52
2023-03-15T14:26:58.226Z,23.54
2023-03-15T14:29:27.436Z,23.53
2023-03-15T14:31:58.881Z,23.54
2023-03-15T14:34:31.506Z,23.53
2023-03-15T14:36:58.332Z,23.55
2023-03-15T14:39:27.588Z,23.57
2023-03-15T14:41:54.526Z,23.52
2023-03-15T14:44:21.338Z,23.45
2023-03-15T14:46:48.493Z,23.41
2023-03-15T14:49:19.400Z,23.35
2023-03-15T14:51:46.605Z,23.37
2023-03-15T14:54:13.440Z,23.38
2023-03-15T14:56:41.604Z,23.38
2023-03-15T14:59:11.172Z,23.44
2023-03-15T15:01:38.186Z,23.43
2023-03-15T15:04:05.163Z,23.48
2023-03-15T15:06:33.505Z,23.47
2023-03-15T15:09:00.392Z,23.45
2023-03-15T15:11:27.382Z,23.42
2023-03-15T15:13:54.213Z,23.44
2023-03-15T15:16:21.073Z,23.41
2023-03-15T15:18:48.450Z,23.42
2023-03-15T15:21:19.105Z,23.47
2023-03-15T15:23:57.856Z,23.46
2023-03-15T15:26:26.562Z,23.43
2023-03-15T15:28:53.589Z,23.40
2023-03-15T15:31:21.629Z,23.37
2023-03-15T15:33:48.802Z,23.30
2023-03-15T15:36:21.085Z,23.23
2023-03-15T15:38:49.954Z,23.23
2023-03-15T15:41:19.130Z,23.22
2023-03-15T15:43:45.920Z,23.21
2023-03-15T15:46:12.911Z,23.23
2023-03-15T15:48:40.183Z,23.28
2023-03-15T15:51:18.661Z,23.31
2023-03-15T15:53:45.470Z,23.32
2023-03-15T15:56:13.949Z,23.35
2023-03-15T15:58:41.619Z,23.31
2023-03-15T16:01:10.204Z,23.30
2023-03-15T16:03:37.058Z,23.32
2023-03-15T16:06:04.075Z,23.29
2023-03-15T16:08:33.511Z,23.32
2023-03-15T16:11:00.341Z,23.32
2023-03-15T16:13:28.585Z,23.32
2023-03-15T16:15:55.416Z,23.31
2023-03-15T16:18:22.257Z,23.29
2023-03-15T16:20:49.210Z,23.25
2023-03-15T16:23:18.299Z,23.16
2023-03-15T16:25:45.986Z,23.14
2023-03-15T16:28:12.833Z,23.13
2023-03-15T16:30:41.041Z,23.14
2023-03-15T16:33:13.139Z,23.10
2023-03-15T16:35:40.149Z,23.11
2023-03-15T16:38:11.855Z,23.10
2023-03-15T16:40:40.936Z,23.15
2023-03-15T16:43:10.496Z,23.19
2023-03-15T16:45:37.304Z,23.21
2023-03-15T16:48:05.816Z,23.21
2023-03-15T16:50:33.189Z,23.22
2023-03-15T16:53:01.257Z,23.21
2023-03-15T16:55:29.209Z,23.19
2023-03-15T16:57:56.844Z,23.17
2023-03-15T17:00:23.919Z,23.13
2023-03-15T17:02:51.550Z,23.14
2023-03-15T17:05:20.144Z,23.14
2023-03-15T17:07:47.967Z,23.13
2023-03-15T17:10:19.323Z,23.09
2023-03-15T17:12:46.181Z,23.06
2023-03-15T17:15:13.045Z,23.00
2023-03-15T17:17:39.927Z,22.98
2023-03-15T17:20:07.230Z,22.98
2023-03-15T17:22:35.431Z,23.02
2023-03-15T17:25:02.759Z,22.97
2023-03-15T17:27:32.833Z,22.96
2023-03-15T17:29:59.956Z,22.92
2023-03-15T17:32:28.058Z,23.10
2023-03-15T17:34:56.077Z,23.33
2023-03-15T17:37:23.167Z,23.72
2023-03-15T17:39:53.740Z,24.09
2023-03-15T17:42:20.930Z,24.34
2023-03-15T17:44:47.968Z,24.43
2023-03-15T17:47:15.054Z,24.62
2023-03-15T17:49:43.789Z,24.81
2023-03-15T17:52:14.672Z,24.94
2023-03-15T17:54:48.761Z,25.08
2023-03-15T17:57:18.652Z,25.29
2023-03-15T17:59:45.903Z,25.42
2023-03-15T18:02:14.986Z,25.38
2023-03-15T18:04:43.291Z,25.56
2023-03-15T18:07:11.052Z,25.45
2023-03-15T18:09:38.376Z,25.44
2023-03-15T18:12:05.825Z,25.44
2023-03-15T18:14:37.347Z,25.50
2023-03-15T18:17:04.472Z,25.42
2023-03-15T18:19:31.669Z,25.81
2023-03-15T18:21:59.176Z,26.45
2023-03-15T18:24:27.607Z,26.67
2023-03-15T18:26:54.650Z,26.70
2023-03-15T18:29:23.530Z,26.67
2023-03-15T18:31:52.336Z,26.56
2023-03-15T18:34:19.824Z,26.58
2023-03-15T18:36:47.011Z,26.60
2023-03-15T18:39:14.235Z,26.55
2023-03-15T18:41:43.857Z,26.44
2023-03-15T18:44:11.222Z,26.48
2023-03-15T18:46:38.421Z,26.19
2023-03-15T18:49:07.056Z,26.19
2023-03-15T18:51:34.559Z,25.93
2023-03-15T18:54:01.628Z,25.61
2023-03-15T18:56:29.491Z,25.47
2023-03-15T18:58:56.595Z,25.37
2023-03-15T19:01:24.061Z,25.32
2023-03-15T19:03:53.068Z,25.33
2023-03-15T19:06:22.407Z,25.39
2023-03-15T19:08:49.469Z,25.53
2023-03-15T19:11:16.647Z,25.57
2023-03-15T19:13:44.123Z,25.46
2023-03-15T19:16:11.401Z,25.50
2023-03-15T19:18:38.476Z,25.46
2023-03-15T19:21:06.070Z,25.62
2023-03-15T19:23:34.630Z,25.46
2023-03-15T19:26:02.002Z,25.37
2023-03-15T19:28:29.280Z,25.31
2023-03-15T19:30:57.979Z,25.23
2023-03-15T19:33:25.087Z,25.24
2023-03-15T19:35:52.605Z,25.20
2023-03-15T19:38:19.739Z,25.12
2023-03-15T19:40:49.773Z,25.05
2023-03-15T19:43:17.186Z,25.07
2023-03-15T19:45:45.455Z,25.12
2023-03-15T19:48:14.276Z,25.12
2023-03-15T19:50:42.650Z,25.07
2023-03-15T19:53:10.024Z,25.11
2023-03-15T19:55:36.970Z,25.12
2023-03-15T19:58:05.403Z,25.15
2023-03-15T20:00:34.454Z,25.20
2023-03-15T20:03:01.457Z,25.20
2023-03-15T20:05:28.925Z,25.20
2023-03-15T20:07:55.985Z,25.20
2023-03-15T20:10:23.554Z,25.17
2023-03-15T20:12:50.745Z,24.95
2023-03-15T20:15:19.112Z,24.93
2023-03-15T20:17:45.939Z,24.94
2023-03-15T20:20:13.067Z,24.94
2023-03-15T20:22:41.607Z,24.91
2023-03-15T20:25:09.333Z,24.87
2023-03-15T20:27:36.383Z,24.80
2023-03-15T20:30:03.484Z,24.71
2023-03-15T20:32:31.922Z,24.62
2023-03-15T20:34:58.818Z,24.60
2023-03-15T20:37:25.990Z,24.44
2023-03-15T20:39:52.829Z,24.48
2023-03-15T20:42:20.289Z,24.53
2023-03-15T20:44:47.140Z,24.46
2023-03-15T20:47:14.308Z,24.45
2023-03-15T20:49:42.634Z,24.44
2023-03-15T20:52:09.642Z,24.44
2023-03-15T20:54:36.670Z,24.40
2023-03-15T20:57:03.674Z,24.33
2023-03-15T20:59:30.488Z,24.31
2023-03-15T21:01:57.299Z,24.24
2023-03-15T21:04:24.414Z,24.25
2023-03-15T21:06:52.590Z,24.20
2023-03-15T21:09:19.370Z,24.13
2023-03-15T21:11:46.322Z,24.14
2023-03-15T21:14:13.292Z,24.12
2023-03-15T21:16:40.183Z,24.10
2023-03-15T21:19:07.059Z,24.02
2023-03-15T21:21:33.856Z,23.97
2023-03-15T21:24:02.066Z,23.93
2023-03-15T21:26:28.933Z,23.91
2023-03-15T21:28:55.747Z,23.89
2023-03-15T21:31:22.561Z,23.90
2023-03-15T21:33:50.929Z,23.94
2023-03-15T21:36:17.853Z,23.97
2023-03-15T21:38:44.660Z,23.98
2023-03-15T21:41:12.857Z,23.99
2023-03-15T21:43:39.737Z,23.93
2023-03-15T21:46:07.464Z,23.93
2023-03-15T21:48:34.857Z,23.93
2023-03-15T21:51:01.994Z,23.93
2023-03-15T21:53:29.472Z,23.91
2023-03-15T21:55:56.627Z,23.93
2023-03-15T21:58:25.223Z,23.92
2023-03-15T22:00:56.202Z,23.89
2023-03-15T22:03:23.059Z,23.90
2023-03-15T22:05:49.858Z,23.86
2023-03-15T22:08:16.998Z,23.67
2023-03-15T22:10:43.880Z,23.76
2023-03-15T22:13:10.876Z,23.75
2023-03-15T22:15:39.115Z,23.77
2023-03-15T22:18:05.946Z,23.77
2023-03-15T22:20:32.758Z,23.74
2023-03-15T22:22:59.702Z,23.79
2023-03-15T22:25:26.519Z,23.81
2023-03-15T22:27:53.351Z,23.82
2023-03-15T22:30:20.242Z,23.83
2023-03-15T22:32:48.456Z,23.85
2023-03-15T22:35:15.596Z,23.83
2023-03-15T22:37:42.689Z,23.80
2023-03-15T22:40:10.628Z,23.75
2023-03-15T22:42:37.440Z,23.78
2023-03-15T22:45:04.591Z,23.74
2023-03-15T22:47:31.477Z,23.73
2023-03-15T22:49:59.731Z,23.58
2023-03-15T22:52:26.977Z,23.74
2023-03-15T22:54:53.922Z,23.70
2023-03-15T22:57:20.746Z,23.67
2023-03-15T22:59:47.624Z,23.64
2023-03-15T23:02:14.429Z,23.64
2023-03-15T23:04:41.427Z,23.63
2023-03-15T23:07:09.750Z,23.63
2023-03-15T23:09:36.550Z,23.64
2023-03-15T23:12:03.479Z,23.65
2023-03-15T23:14:30.669Z,23.68
2023-03-15T23:16:57.480Z,23.69
2023-03-15T23:19:24.332Z,23.70
2023-03-15T23:21:51.359Z,23.70
2023-03-15T23:24:19.598Z,23.68
2023-03-15T23:26:46.437Z,23.66
2023-03-15T23:29:13.342Z,23.65
2023-03-15T23:31:41.050Z,23.65
2023-03-15T23:34:07.997Z,23.64
2023-03-15T23:36:35.270Z,23.62
2023-03-15T23:39:02.246Z,23.60
2023-03-15T23:41:30.406Z,23.58
2023-03-15T23:43:57.255Z,23.48
2023-03-15T23:46:25.553Z,23.44
2023-03-15T23:48:52.478Z,23.45
2023-03-15T23:51:19.941Z,23.42
2023-03-15T23:53:46.815Z,23.42
2023-03-15T23:56:13.628Z,23.44
2023-03-15T23:58:41.936Z,23.42
